createdAt,value
2018-07-13T00:02:07.114Z,9.53
2018-07-13T00:04:35.364Z,9.80
2018-07-13T00:07:03.635Z,9.67
2018-07-13T00:09:31.883Z,9.50
2018-07-13T00:12:00.678Z,9.77
2018-07-13T00:14:29.204Z,10.33
2018-07-13T00:16:58.603Z,10.63
2018-07-13T00:19:27.155Z,10.50
2018-07-13T00:21:55.516Z,11.73
2018-07-13T00:24:23.778Z,11.73
2018-07-13T00:26:52.038Z,11.83
2018-07-13T00:29:20.295Z,11.50
2018-07-13T00:31:48.550Z,11.07
2018-07-13T00:34:16.818Z,10.60
2018-07-13T00:36:45.138Z,11.40
2018-07-13T00:39:14.038Z,10.70
2018-07-13T00:41:42.310Z,11.10
2018-07-13T00:44:10.605Z,10.13
2018-07-13T00:46:38.950Z,11.63
2018-07-13T00:49:07.208Z,11.83
2018-07-13T00:51:35.486Z,10.70
2018-07-13T00:54:03.769Z,11.03
2018-07-13T00:56:32.034Z,10.50
2018-07-13T00:59:00.603Z,9.53
2018-07-13T01:01:28.862Z,9.50
2018-07-13T01:03:57.121Z,9.30
2018-07-13T01:06:25.380Z,10.83
2018-07-13T01:08:53.635Z,10.43
2018-07-13T01:11:21.888Z,10.20
2018-07-13T01:13:50.342Z,10.63
2018-07-13T01:16:18.625Z,9.83
2018-07-13T01:18:46.890Z,9.97
2018-07-13T01:21:14.890Z,10.20
2018-07-13T01:23:43.148Z,9.70
2018-07-13T01:26:11.408Z,10.00
2018-07-13T01:28:39.666Z,10.10
2018-07-13T01:31:07.938Z,10.00
2018-07-13T01:33:36.292Z,10.13
2018-07-13T01:36:04.565Z,11.20
2018-07-13T01:38:32.836Z,10.63
2018-07-13T01:41:00.839Z,10.43
2018-07-13T01:43:29.131Z,10.37
2018-07-13T01:45:57.407Z,10.67
2018-07-13T01:48:25.671Z,11.13
2018-07-13T01:50:53.941Z,9.33
2018-07-13T01:53:22.258Z,10.83
2018-07-13T01:55:50.530Z,9.67
2018-07-13T01:58:18.906Z,10.37
2018-07-13T02:00:47.251Z,12.17
2018-07-13T02:03:15.516Z,11.50
2018-07-13T02:05:43.799Z,11.23
2018-07-13T02:08:12.069Z,10.50
2018-07-13T02:10:40.344Z,10.63
2018-07-13T02:13:08.652Z,10.90
2018-07-13T02:15:36.893Z,10.80
2018-07-13T02:18:05.424Z,11.23
2018-07-13T02:20:33.707Z,10.60
2018-07-13T02:23:01.971Z,10.87
2018-07-13T02:25:30.244Z,11.47
2018-07-13T02:27:59.166Z,10.10
2018-07-13T02:30:27.443Z,9.93
2018-07-13T02:32:55.724Z,12.20
2018-07-13T02:35:23.999Z,10.10
2018-07-13T02:37:52.259Z,9.87
2018-07-13T02:40:20.534Z,10.90
2018-07-13T02:42:48.521Z,10.00
2018-07-13T02:45:16.788Z,10.83
2018-07-13T02:47:45.055Z,12.60
2018-07-13T02:50:13.340Z,11.73
2018-07-13T02:52:41.600Z,10.20
2018-07-13T02:55:09.866Z,10.90
2018-07-13T02:57:38.138Z,10.07
2018-07-13T03:00:06.459Z,11.73
2018-07-13T03:02:34.732Z,11.87
2018-07-13T03:05:03.043Z,10.60
2018-07-13T03:07:31.302Z,11.63
2018-07-13T03:09:59.584Z,14.07
2018-07-13T03:12:27.851Z,13.17
2018-07-13T03:14:56.119Z,11.90
2018-07-13T03:17:24.375Z,10.87
2018-07-13T03:19:52.635Z,11.13
2018-07-13T03:22:20.964Z,15.47
2018-07-13T03:24:49.228Z,12.03
2018-07-13T03:27:17.499Z,10.30
2018-07-13T03:29:45.764Z,10.37
2018-07-13T03:32:14.034Z,10.87
2018-07-13T03:34:42.300Z,13.77
2018-07-13T03:37:10.580Z,11.17
2018-07-13T03:39:38.843Z,15.17
2018-07-13T03:42:07.122Z,11.43
2018-07-13T03:44:35.426Z,11.73
2018-07-13T03:47:03.727Z,11.83
2018-07-13T03:49:31.985Z,11.50
2018-07-13T03:52:00.900Z,12.07
2018-07-13T03:54:29.177Z,10.90
2018-07-13T03:56:57.454Z,12.23
2018-07-13T03:59:25.760Z,10.33
2018-07-13T04:01:54.243Z,12.70
2018-07-13T04:04:22.358Z,12.93
2018-07-13T04:06:50.731Z,12.30
2018-07-13T04:09:19.219Z,13.63
2018-07-13T04:11:47.214Z,16.30
2018-07-13T04:14:15.530Z,11.37
2018-07-13T04:16:43.819Z,9.67
2018-07-13T04:19:12.084Z,11.60
2018-07-13T04:21:40.364Z,11.13
2018-07-13T04:24:08.671Z,11.67
2018-07-13T04:26:36.981Z,16.17
2018-07-13T04:29:05.450Z,11.80
2018-07-13T04:31:33.855Z,12.07
2018-07-13T04:36:39.800Z,15.30
2018-07-13T04:39:09.950Z,13.57
2018-07-13T04:41:38.236Z,13.17
2018-07-13T04:44:07.206Z,14.60
2018-07-13T04:46:35.696Z,12.70
2018-07-13T04:49:04.438Z,13.37
2018-07-13T04:51:32.767Z,13.60
2018-07-13T04:54:01.007Z,13.50
2018-07-13T04:56:30.176Z,12.27
2018-07-13T04:58:59.124Z,13.37
2018-07-13T05:01:28.448Z,14.67
2018-07-13T05:03:57.029Z,11.77
2018-07-13T05:06:25.443Z,12.37
2018-07-13T05:08:54.345Z,12.10
2018-07-13T05:11:22.762Z,10.30
2018-07-13T05:13:51.305Z,11.30
2018-07-13T05:16:19.909Z,10.07
2018-07-13T05:18:47.894Z,9.97
2018-07-13T05:21:16.274Z,11.67
2018-07-13T05:23:44.531Z,12.20
2018-07-13T05:26:12.838Z,9.70
2018-07-13T05:28:41.138Z,8.97
2018-07-13T05:31:09.458Z,9.20
2018-07-13T05:33:37.778Z,13.33
2018-07-13T05:36:06.377Z,9.63
2018-07-13T05:38:34.687Z,13.57
2018-07-13T05:41:02.982Z,10.80
2018-07-13T05:43:31.318Z,9.07
2018-07-13T05:45:59.643Z,10.70
2018-07-13T05:48:28.260Z,9.10
2018-07-13T05:50:56.851Z,9.83
2018-07-13T05:53:25.142Z,8.77
2018-07-13T05:55:53.601Z,9.10
2018-07-13T05:58:21.906Z,9.90
2018-07-13T06:00:50.194Z,8.70
2018-07-13T06:03:18.523Z,8.80
2018-07-13T06:05:46.819Z,9.10
2018-07-13T06:08:15.112Z,9.67
2018-07-13T06:10:43.407Z,10.23
2018-07-13T06:13:11.694Z,8.70
2018-07-13T06:15:40.058Z,7.90
2018-07-13T06:18:08.330Z,8.87
2018-07-13T06:20:36.581Z,8.30
2018-07-13T06:23:04.857Z,8.80
2018-07-13T06:25:33.113Z,8.50
2018-07-13T06:28:01.371Z,7.87
2018-07-13T06:30:29.648Z,7.30
2018-07-13T06:32:58.209Z,7.87
2018-07-13T06:35:26.504Z,7.17
2018-07-13T06:37:54.940Z,7.93
2018-07-13T06:40:23.235Z,6.97
2018-07-13T06:42:51.759Z,6.77
2018-07-13T06:45:20.034Z,7.47
2018-07-13T06:47:48.325Z,9.77
2018-07-13T06:50:16.607Z,7.20
2018-07-13T06:52:44.892Z,6.60
2018-07-13T06:55:14.919Z,7.87
2018-07-13T06:57:54.518Z,7.23
2018-07-13T07:00:59.403Z,7.80
2018-07-13T07:03:28.799Z,6.77
2018-07-13T07:06:16.136Z,6.40
2018-07-13T07:08:47.827Z,9.38
2018-07-13T07:11:17.266Z,10.90
2018-07-13T07:13:46.387Z,6.45
2018-07-13T07:16:14.795Z,5.17
2018-07-13T07:18:43.165Z,5.58
2018-07-13T07:21:11.451Z,6.03
2018-07-13T07:23:39.741Z,6.40
2018-07-13T07:26:08.039Z,8.40
2018-07-13T07:28:36.306Z,9.50
2018-07-13T07:31:04.607Z,9.10
2018-07-13T07:33:32.870Z,7.97
2018-07-13T07:36:01.149Z,7.80
2018-07-13T07:38:29.644Z,6.28
2018-07-13T07:40:57.866Z,5.08
2018-07-13T07:43:26.235Z,6.58
2018-07-13T07:45:54.516Z,8.55
2018-07-13T07:48:22.784Z,6.60
2018-07-13T07:50:51.045Z,6.05
2018-07-13T07:53:19.317Z,6.45
2018-07-13T07:55:47.581Z,6.53
2018-07-13T07:58:15.836Z,6.05
2018-07-13T08:00:44.175Z,5.58
2018-07-13T08:03:12.431Z,6.42
2018-07-13T08:05:40.731Z,6.78
2018-07-13T08:08:09.001Z,4.95
2018-07-13T08:10:37.270Z,8.03
2018-07-13T08:13:05.866Z,7.10
2018-07-13T08:15:33.894Z,8.33
2018-07-13T08:18:02.165Z,7.05
2018-07-13T08:20:32.354Z,6.83
2018-07-13T08:23:02.294Z,7.17
2018-07-13T08:25:30.989Z,7.10
2018-07-13T08:28:01.453Z,7.70
2018-07-13T08:30:50.343Z,5.70
2018-07-13T08:33:18.601Z,5.37
2018-07-13T08:35:46.862Z,5.78
2018-07-13T08:38:15.118Z,5.17
2018-07-13T08:40:43.408Z,5.40
2018-07-13T08:43:11.704Z,5.55
2018-07-13T08:45:40.016Z,4.28
2018-07-13T08:48:08.307Z,4.92
2018-07-13T08:50:36.678Z,6.10
2018-07-13T08:53:04.969Z,5.85
2018-07-13T08:55:33.263Z,5.95
2018-07-13T08:58:01.574Z,9.35
2018-07-13T09:00:29.898Z,7.53
2018-07-13T09:02:58.191Z,5.60
2018-07-13T09:05:26.471Z,7.30
2018-07-13T09:07:54.762Z,5.65
2018-07-13T09:10:23.316Z,7.17
2018-07-13T09:12:51.644Z,6.58
2018-07-13T09:15:19.878Z,6.97
2018-07-13T09:17:48.147Z,5.55
2018-07-13T09:20:16.450Z,6.62
2018-07-13T09:22:44.754Z,6.05
2018-07-13T09:25:13.266Z,7.10
2018-07-13T09:27:41.908Z,5.28
2018-07-13T09:30:11.350Z,6.35
2018-07-13T09:32:39.790Z,3.98
2018-07-13T09:35:08.373Z,3.72
2018-07-13T09:37:36.723Z,3.05
2018-07-13T09:40:05.243Z,4.92
2018-07-13T09:42:33.717Z,7.30
2018-07-13T09:45:01.995Z,4.72
2018-07-13T09:47:30.978Z,6.70
2018-07-13T09:49:59.378Z,4.72
2018-07-13T09:52:27.807Z,4.83
2018-07-13T09:54:56.447Z,4.33
2018-07-13T09:57:25.223Z,3.87
2018-07-13T09:59:53.568Z,4.28
2018-07-13T10:02:21.864Z,5.17
2018-07-13T10:04:52.637Z,4.33
2018-07-13T10:07:21.040Z,5.25
2018-07-13T10:09:49.318Z,4.58
2018-07-13T10:12:17.761Z,4.03
2018-07-13T10:14:46.049Z,4.78
2018-07-13T10:17:14.351Z,3.90
2018-07-13T10:19:42.659Z,4.17
2018-07-13T10:22:13.368Z,3.58
2018-07-13T10:24:42.946Z,3.62
2018-07-13T10:27:11.239Z,3.52
2018-07-13T10:29:43.863Z,3.77
2018-07-13T10:32:12.267Z,5.15
2018-07-13T10:34:41.414Z,5.15
2018-07-13T10:37:09.704Z,4.50
2018-07-13T10:39:38.039Z,6.25
2018-07-13T10:42:06.538Z,3.30
2018-07-13T10:44:34.854Z,3.27
2018-07-13T10:47:03.219Z,4.45
2018-07-13T10:49:31.500Z,4.05
2018-07-13T10:52:00.736Z,6.33
2018-07-13T10:54:28.991Z,5.87
2018-07-13T10:56:57.338Z,4.87
2018-07-13T10:59:25.600Z,3.77
2018-07-13T11:01:53.859Z,10.25
2018-07-13T11:04:22.159Z,3.30
2018-07-13T11:06:50.476Z,6.70
2018-07-13T11:09:18.741Z,4.05
2018-07-13T11:11:47.027Z,4.03
2018-07-13T11:14:15.325Z,5.85
2018-07-13T11:16:43.588Z,10.35
2018-07-13T11:19:12.011Z,4.72
2018-07-13T11:21:40.392Z,4.05
2018-07-13T11:24:09.252Z,6.67
2018-07-13T11:26:39.480Z,6.17
2018-07-13T11:29:07.774Z,4.05
2018-07-13T11:31:36.065Z,4.72
2018-07-13T11:34:04.402Z,4.12
2018-07-13T11:36:43.693Z,6.35
2018-07-13T11:39:11.930Z,7.58
2018-07-13T11:41:40.196Z,4.92
2018-07-13T11:44:08.535Z,3.77
2018-07-13T11:46:36.827Z,5.60
2018-07-13T11:49:05.211Z,4.00
2018-07-13T11:51:34.059Z,3.70
2018-07-13T11:54:02.330Z,5.10
2018-07-13T11:56:30.804Z,3.02
2018-07-13T11:58:59.323Z,3.15
2018-07-13T12:01:27.615Z,4.90
2018-07-13T12:03:55.903Z,4.78
2018-07-13T12:06:25.053Z,4.95
2018-07-13T12:08:53.355Z,2.77
2018-07-13T12:11:21.357Z,3.08
2018-07-13T12:13:49.751Z,2.87
2018-07-13T12:16:18.048Z,6.22
2018-07-13T12:18:46.310Z,4.35
2018-07-13T12:21:14.589Z,5.05
2018-07-13T12:23:42.858Z,3.45
2018-07-13T12:26:11.114Z,2.77
2018-07-13T12:28:39.427Z,3.85
2018-07-13T12:31:07.692Z,3.52
2018-07-13T12:33:36.048Z,2.83
2018-07-13T12:36:04.478Z,3.42
2018-07-13T12:38:32.933Z,2.47
2018-07-13T12:41:01.282Z,3.12
2018-07-13T12:43:29.667Z,2.90
2018-07-13T12:45:58.306Z,3.60
2018-07-13T12:48:26.571Z,2.42
2018-07-13T12:50:55.100Z,2.80
2018-07-13T12:53:23.433Z,2.70
2018-07-13T12:55:51.835Z,2.42
2018-07-13T12:58:20.307Z,2.65
2018-07-13T13:00:48.572Z,2.45
2018-07-13T13:03:16.908Z,3.10
2018-07-13T13:05:45.562Z,4.00
2018-07-13T13:08:13.951Z,3.52
2018-07-13T13:10:41.948Z,3.12
2018-07-13T13:13:10.213Z,1.75
2018-07-13T13:15:38.508Z,1.80
2018-07-13T13:18:06.798Z,4.58
2018-07-13T13:20:35.070Z,3.67
2018-07-13T13:23:03.377Z,3.50
2018-07-13T13:25:31.659Z,14.03
2018-07-13T13:27:59.998Z,2.72
2018-07-13T13:30:28.328Z,3.90
2018-07-13T13:32:56.612Z,2.40
2018-07-13T13:35:24.886Z,2.70
2018-07-13T13:37:53.159Z,1.50
2018-07-13T13:40:21.582Z,4.50
2018-07-13T13:42:49.866Z,1.95
2018-07-13T13:45:18.147Z,2.75
2018-07-13T13:47:46.421Z,3.70
2018-07-13T13:50:14.422Z,3.47
2018-07-13T13:52:42.749Z,5.75
2018-07-13T13:55:11.126Z,2.12
2018-07-13T14:01:36.876Z,4.00
2018-07-13T14:04:05.274Z,1.27
2018-07-13T14:06:33.712Z,0.90
2018-07-13T14:09:10.232Z,1.42
2018-07-13T14:11:38.975Z,1.15
2018-07-13T14:14:07.244Z,1.00
2018-07-13T14:16:35.529Z,1.70
2018-07-13T14:19:04.009Z,1.15
2018-07-13T14:21:32.367Z,2.40
2018-07-13T14:24:00.597Z,1.05
2018-07-13T14:26:28.855Z,1.00
2018-07-13T14:28:57.127Z,0.88
2018-07-13T14:31:25.436Z,3.05
2018-07-13T14:33:53.465Z,1.52
2018-07-13T14:36:21.758Z,2.75
2018-07-13T14:38:50.035Z,2.22
2018-07-13T14:41:18.364Z,2.25
2018-07-13T14:43:46.682Z,1.92
2018-07-13T14:46:15.243Z,2.08
2018-07-13T14:48:43.514Z,2.22
2018-07-13T14:51:11.785Z,1.95
2018-07-13T14:53:40.073Z,1.70
2018-07-13T14:56:08.409Z,2.42
2018-07-13T14:58:36.729Z,8.78
2018-07-13T15:01:05.003Z,3.90
2018-07-13T15:03:33.338Z,4.58
2018-07-13T15:06:02.344Z,4.47
2018-07-13T15:08:30.557Z,5.15
2018-07-13T15:10:58.842Z,3.90
2018-07-13T15:13:27.159Z,3.75
2018-07-13T15:15:55.479Z,3.95
2018-07-13T15:18:23.749Z,4.08
2018-07-13T15:20:52.024Z,3.40
2018-07-13T15:23:20.314Z,5.03
2018-07-13T15:25:48.583Z,8.15
2018-07-13T15:28:16.906Z,10.43
2018-07-13T15:30:45.244Z,4.95
2018-07-13T15:33:13.509Z,2.60
2018-07-13T15:35:41.826Z,3.22
2018-07-13T15:38:09.861Z,4.90
2018-07-13T15:40:38.176Z,3.30
2018-07-13T15:43:06.452Z,3.25
2018-07-13T15:45:34.755Z,4.62
2018-07-13T15:48:03.022Z,6.58
2018-07-13T15:50:31.305Z,4.42
2018-07-13T15:53:00.121Z,3.08
2018-07-13T15:55:34.703Z,3.17
2018-07-13T15:58:03.039Z,4.37
2018-07-13T16:00:31.369Z,3.37
2018-07-13T16:02:59.626Z,5.00
2018-07-13T16:05:28.145Z,4.12
2018-07-13T16:07:56.487Z,2.52
2018-07-13T16:10:24.791Z,4.40
2018-07-13T16:12:53.060Z,9.15
2018-07-13T16:15:21.367Z,8.73
2018-07-13T16:17:49.816Z,6.45
2018-07-13T16:20:18.114Z,3.10
2018-07-13T16:22:46.425Z,5.33
2018-07-13T16:25:14.691Z,9.13
2018-07-13T16:27:42.962Z,6.10
2018-07-13T16:30:11.287Z,4.35
2018-07-13T16:32:39.812Z,2.75
2018-07-13T16:35:08.591Z,4.47
2018-07-13T16:37:39.342Z,2.87
2018-07-13T16:40:07.605Z,2.70
2018-07-13T16:42:35.876Z,4.55
2018-07-13T16:45:04.191Z,2.90
2018-07-13T16:47:32.498Z,3.12
2018-07-13T16:50:00.811Z,2.60
2018-07-13T16:52:28.838Z,4.67
2018-07-13T16:54:57.202Z,2.90
2018-07-13T16:57:25.721Z,6.57
2018-07-13T16:59:54.016Z,2.70
2018-07-13T17:02:22.020Z,2.57
2018-07-13T17:04:50.383Z,2.80
2018-07-13T17:07:18.697Z,5.03
2018-07-13T17:09:46.956Z,2.93
2018-07-13T17:12:15.320Z,2.20
2018-07-13T17:14:45.188Z,4.42
2018-07-13T17:17:13.659Z,2.98
2018-07-13T17:19:41.972Z,3.53
2018-07-13T17:22:09.966Z,2.60
2018-07-13T17:24:38.245Z,4.57
2018-07-13T17:27:06.505Z,2.75
2018-07-13T17:29:34.765Z,3.70
2018-07-13T17:32:03.722Z,4.60
2018-07-13T17:34:31.993Z,3.30
2018-07-13T17:37:00.294Z,4.08
2018-07-13T17:39:28.634Z,2.73
2018-07-13T17:41:57.002Z,5.63
2018-07-13T17:44:25.275Z,2.57
2018-07-13T17:46:53.573Z,3.40
2018-07-13T17:49:21.963Z,4.27
2018-07-13T17:51:50.163Z,3.57
2018-07-13T17:54:18.431Z,2.27
2018-07-13T17:56:46.454Z,4.53
2018-07-13T17:59:14.755Z,3.83
2018-07-13T18:01:43.347Z,4.93
2018-07-13T18:04:11.671Z,3.80
2018-07-13T18:06:39.955Z,4.17
2018-07-13T18:09:08.459Z,3.90
2018-07-13T18:11:36.752Z,3.47
2018-07-13T18:14:05.027Z,3.00
2018-07-13T18:16:33.287Z,3.43
2018-07-13T18:19:01.549Z,4.67
2018-07-13T18:21:29.875Z,2.57
2018-07-13T18:23:58.259Z,3.10
2018-07-13T18:26:26.916Z,2.97
2018-07-13T18:28:55.183Z,5.67
2018-07-13T18:31:23.443Z,3.50
2018-07-13T18:33:51.750Z,7.60
2018-07-13T18:36:20.031Z,4.47
2018-07-13T18:38:48.318Z,5.73
2018-07-13T18:41:19.162Z,3.97
2018-07-13T18:43:47.422Z,4.27
2018-07-13T18:46:15.700Z,7.30
2018-07-13T18:48:43.958Z,3.87
2018-07-13T18:51:12.259Z,7.63
2018-07-13T18:53:40.813Z,4.33
2018-07-13T18:56:09.076Z,5.40
2018-07-13T18:58:37.482Z,4.87
2018-07-13T19:01:05.972Z,4.83
2018-07-13T19:03:34.722Z,5.50
2018-07-13T19:06:03.075Z,8.33
2018-07-13T19:08:31.370Z,7.90
2018-07-13T19:11:01.642Z,4.10
2018-07-13T19:13:33.069Z,4.13
2018-07-13T19:16:01.294Z,4.53
2018-07-13T19:18:29.569Z,6.23
2018-07-13T19:20:57.889Z,3.90
2018-07-13T19:23:26.202Z,3.80
2018-07-13T19:25:54.458Z,3.23
2018-07-13T19:28:22.726Z,4.50
2018-07-13T19:30:51.223Z,3.00
2018-07-13T19:33:19.377Z,4.37
2018-07-13T19:35:47.700Z,3.23
2018-07-13T19:38:15.703Z,6.30
2018-07-13T19:40:43.961Z,3.33
2018-07-13T19:43:12.246Z,7.30
2018-07-13T19:45:44.838Z,4.00
2018-07-13T19:48:13.607Z,9.07
2018-07-13T19:50:41.891Z,7.27
2018-07-13T19:53:10.289Z,6.67
2018-07-13T19:55:40.069Z,7.17
2018-07-13T19:58:08.331Z,9.73
2018-07-13T20:00:36.723Z,11.90
2018-07-13T20:03:05.074Z,10.77
2018-07-13T20:05:33.318Z,13.03
2018-07-13T20:08:01.704Z,14.60
2018-07-13T20:10:30.100Z,11.70
2018-07-13T20:12:58.411Z,9.87
2018-07-13T20:15:26.839Z,7.37
2018-07-13T20:17:55.099Z,13.13
2018-07-13T20:20:23.490Z,11.73
2018-07-13T20:22:51.907Z,13.23
2018-07-13T20:25:20.169Z,10.13
2018-07-13T20:27:48.182Z,8.83
2018-07-13T20:30:16.439Z,8.93
2018-07-13T20:32:44.675Z,8.03
2018-07-13T20:35:12.928Z,5.90
2018-07-13T20:37:41.232Z,8.77
2018-07-13T20:41:34.151Z,5.70
2018-07-13T20:44:02.540Z,5.57
2018-07-13T20:46:30.786Z,5.20
2018-07-13T20:48:59.055Z,6.17
2018-07-13T20:51:27.368Z,5.17
2018-07-13T20:53:55.611Z,5.17
2018-07-13T20:56:23.885Z,7.87
2018-07-13T20:58:52.178Z,7.50
2018-07-13T21:01:20.432Z,6.27
2018-07-13T21:03:48.684Z,6.63
2018-07-13T21:06:16.935Z,5.90
2018-07-13T21:08:45.187Z,5.90
2018-07-13T21:11:13.458Z,6.40
2018-07-13T21:13:41.765Z,5.97
2018-07-13T21:16:10.029Z,5.10
2018-07-13T21:18:38.280Z,6.73
2018-07-13T21:21:06.549Z,5.57
2018-07-13T21:23:34.799Z,5.47
2018-07-13T21:26:03.058Z,5.47
2018-07-13T21:28:31.323Z,6.17
2018-07-13T21:30:59.571Z,6.07
2018-07-13T21:33:27.826Z,5.50
2018-07-13T21:35:56.088Z,6.17
2018-07-13T21:38:24.378Z,8.00
2018-07-13T21:40:52.634Z,5.80
2018-07-13T21:43:20.939Z,5.90
2018-07-13T21:45:48.954Z,5.60
2018-07-13T21:48:17.211Z,5.83
2018-07-13T21:50:45.467Z,6.87
2018-07-13T21:53:13.737Z,8.73
2018-07-13T21:55:41.987Z,7.07
2018-07-13T21:58:10.243Z,7.00
2018-07-13T22:00:38.500Z,6.53
2018-07-13T22:03:06.764Z,6.83
2018-07-13T22:05:35.026Z,6.07
2018-07-13T22:08:03.276Z,6.13
2018-07-13T22:10:31.522Z,6.17
2018-07-13T22:12:59.785Z,6.83
2018-07-13T22:15:28.073Z,7.03
2018-07-13T22:17:56.315Z,6.87
2018-07-13T22:20:24.615Z,6.70
2018-07-13T22:22:52.902Z,6.43
2018-07-13T22:25:21.168Z,6.70
2018-07-13T22:27:49.425Z,7.53
2018-07-13T22:30:17.671Z,7.93
2018-07-13T22:32:45.920Z,7.50
2018-07-13T22:35:14.174Z,6.53
2018-07-13T22:37:42.413Z,6.73
2018-07-13T22:40:10.700Z,6.20
2018-07-13T22:42:38.965Z,6.80
2018-07-13T22:45:07.280Z,6.90
2018-07-13T22:47:35.545Z,6.30
2018-07-13T22:50:03.835Z,6.77
2018-07-13T22:52:32.095Z,7.33
2018-07-13T22:55:00.356Z,6.53
2018-07-13T22:57:28.626Z,7.63
2018-07-13T22:59:57.180Z,7.30
2018-07-13T23:02:25.328Z,6.53
2018-07-13T23:04:53.585Z,7.17
2018-07-13T23:07:21.587Z,7.83
2018-07-13T23:09:49.976Z,7.17
2018-07-13T23:12:18.345Z,6.87
2018-07-13T23:14:46.699Z,6.50
2018-07-13T23:17:15.064Z,6.90
2018-07-13T23:19:43.436Z,7.67
2018-07-13T23:22:11.809Z,7.20
2018-07-13T23:24:40.131Z,8.57
2018-07-13T23:27:08.503Z,7.40
2018-07-13T23:29:36.851Z,6.80
2018-07-13T23:32:05.200Z,7.03
2018-07-13T23:34:33.579Z,8.13
2018-07-13T23:37:01.949Z,6.90
2018-07-13T23:39:30.307Z,8.27
2018-07-13T23:41:58.650Z,7.50
2018-07-13T23:44:27.039Z,6.90
2018-07-13T23:46:55.397Z,7.57
2018-07-13T23:49:23.781Z,7.57
2018-07-13T23:51:52.131Z,7.03
2018-07-13T23:54:20.509Z,7.90
2018-07-13T23:56:48.881Z,8.20
2018-07-13T23:59:17.229Z,8.50
